Svobodnyj, Russia
Current Conditions -  °F | °C
As of 4:00 PM on Friday 24 Oct 2014 (Local Time) from UHBB Reporting Station
Smoke Smoke  
Wind Chill: 37°   Ceiling: Unl
Heat Index: 41°   Visibility: 2.3mi
Dew Point: 27°   Wind: 7mph
Humidity: 57%   Direction: 210°SSW
Pressure: 29.77"   Gusts: NA
Location:  51.4°N, 128.13°E
Report Text: UHBB 240700Z 21003MPS 170V240 3800 FU NSC 05/M03 Q1008 TEMPO1500 FU RMK QFE739/0985 36090060
Loading
Personal Weather Stations






























Interactive Weather Map
Tropical Storm Tracking
New forecast layout! Learn more

10-Day Weather Forecast

Advertisements
Track Severe Weather on mobile